createdAt,value
2018-07-16T00:03:28.609Z,25.26
2018-07-16T00:08:12.113Z,25.25
2018-07-16T00:12:59.598Z,25.12
2018-07-16T00:17:43.214Z,25.43
2018-07-16T00:22:26.862Z,25.34
2018-07-16T00:27:10.560Z,25.07
2018-07-16T00:31:54.123Z,25.17
2018-07-16T00:36:38.908Z,24.82
2018-07-16T00:41:22.557Z,24.51
2018-07-16T00:46:09.704Z,24.62
2018-07-16T00:50:53.247Z,23.88
2018-07-16T00:55:39.979Z,24.67
2018-07-16T01:00:23.569Z,24.82
2018-07-16T01:05:10.710Z,24.92
2018-07-16T01:09:54.157Z,24.15
2018-07-16T01:14:41.212Z,24.20
2018-07-16T01:19:24.823Z,24.00
2018-07-16T01:24:09.458Z,23.92
2018-07-16T01:28:53.168Z,23.58
2018-07-16T01:33:36.782Z,23.64
2018-07-16T01:38:20.318Z,23.80
2018-07-16T01:43:07.017Z,23.94
2018-07-16T01:47:50.619Z,24.10
2018-07-16T01:52:38.501Z,24.09
2018-07-16T01:57:21.979Z,23.67
2018-07-16T02:02:05.555Z,23.51
2018-07-16T02:06:54.140Z,23.54
2018-07-16T02:11:37.631Z,23.24
2018-07-16T02:16:22.225Z,23.43
2018-07-16T02:21:05.629Z,23.78
2018-07-16T02:25:52.595Z,23.93
2018-07-16T02:30:36.305Z,23.50
2018-07-16T02:35:20.988Z,23.50
2018-07-16T02:40:04.415Z,23.69
2018-07-16T02:44:47.920Z,23.48
2018-07-16T02:49:31.559Z,23.39
2018-07-16T02:54:15.303Z,23.25
2018-07-16T02:58:58.935Z,22.88
2018-07-16T03:03:45.877Z,22.80
2018-07-16T03:08:29.502Z,22.79
2018-07-16T03:13:13.229Z,22.55
2018-07-16T03:17:56.599Z,22.85
2018-07-16T03:22:43.602Z,22.44
2018-07-16T03:27:27.231Z,22.59
2018-07-16T03:32:10.792Z,22.44
2018-07-16T03:36:54.302Z,22.85
2018-07-16T03:41:37.997Z,22.76
2018-07-16T03:46:22.929Z,23.07
2018-07-16T03:55:51.930Z,22.51
2018-07-16T04:00:35.424Z,22.75
2018-07-16T04:05:24.049Z,23.11
2018-07-16T04:10:07.629Z,23.39
2018-07-16T04:14:52.211Z,23.47
2018-07-16T04:19:35.773Z,23.49
2018-07-16T04:24:22.286Z,23.28
2018-07-16T04:29:06.421Z,22.81
2018-07-16T04:33:53.358Z,23.31
2018-07-16T04:38:36.945Z,23.54
2018-07-16T04:43:23.717Z,23.54
2018-07-16T04:48:07.204Z,23.08
2018-07-16T04:52:51.764Z,23.08
2018-07-16T04:57:35.219Z,23.08
2018-07-16T05:02:19.077Z,23.14
2018-07-16T05:07:02.829Z,23.08
2018-07-16T05:11:46.459Z,23.11
2018-07-16T05:16:33.054Z,23.25
2018-07-16T05:21:16.696Z,23.44
2018-07-16T05:26:03.854Z,23.62
2018-07-16T05:30:47.379Z,23.63
2018-07-16T05:35:34.458Z,23.57
2018-07-16T05:40:18.066Z,23.71
2018-07-16T05:45:01.539Z,23.76
2018-07-16T05:49:45.085Z,23.84
2018-07-16T05:54:28.705Z,23.88
2018-07-16T05:59:12.335Z,23.93
2018-07-16T06:03:57.108Z,23.93
2018-07-16T06:08:40.620Z,23.95
2018-07-16T06:13:24.236Z,24.07
2018-07-16T06:18:07.760Z,24.09
2018-07-16T06:22:51.452Z,24.16
2018-07-16T06:27:34.883Z,24.17
2018-07-16T06:32:19.579Z,24.21
2018-07-16T06:37:03.041Z,24.22
2018-07-16T06:41:50.568Z,24.36
2018-07-16T06:46:34.097Z,24.31
2018-07-16T06:51:17.682Z,24.42
2018-07-16T06:56:05.489Z,24.47
2018-07-16T07:00:49.089Z,24.58
2018-07-16T07:05:36.134Z,24.48
2018-07-16T07:10:19.809Z,24.64
2018-07-16T07:15:03.388Z,24.62
2018-07-16T07:19:46.905Z,24.71
2018-07-16T07:24:33.830Z,24.84
2018-07-16T07:29:17.295Z,24.82
2018-07-16T07:34:04.198Z,24.82
2018-07-16T07:38:47.757Z,25.22
2018-07-16T07:43:35.345Z,25.00
2018-07-16T07:48:18.944Z,25.12
2018-07-16T07:53:05.663Z,25.39
2018-07-16T07:57:48.982Z,25.35
2018-07-16T08:02:33.509Z,25.22
2018-07-16T08:07:17.128Z,25.43
2018-07-16T08:12:04.393Z,25.46
2018-07-16T08:16:47.865Z,25.60
2018-07-16T08:21:32.334Z,25.69
2018-07-16T08:26:15.922Z,25.72
2018-07-16T08:30:59.501Z,25.86
2018-07-16T08:35:46.299Z,25.81
2018-07-16T08:40:29.804Z,25.66
2018-07-16T08:45:17.112Z,25.80
2018-07-16T08:50:00.663Z,25.80
2018-07-16T08:54:45.180Z,25.68
2018-07-16T08:59:28.659Z,26.04
2018-07-16T09:04:12.363Z,25.99
2018-07-16T09:08:55.787Z,25.98
2018-07-16T09:13:39.548Z,26.33
2018-07-16T09:18:23.053Z,26.12
2018-07-16T09:23:09.759Z,26.54
2018-07-16T09:27:53.239Z,26.49
2018-07-16T09:32:36.692Z,26.25
2018-07-16T09:37:20.195Z,26.41
2018-07-16T09:42:08.052Z,26.44
2018-07-16T09:46:51.570Z,26.51
2018-07-16T09:51:36.109Z,26.83
2018-07-16T09:56:19.626Z,26.50
2018-07-16T10:01:08.307Z,26.76
2018-07-16T10:05:51.881Z,26.42
2018-07-16T10:10:35.406Z,26.74
2018-07-16T10:15:20.025Z,26.50
2018-07-16T10:20:03.420Z,26.62
2018-07-16T10:24:48.092Z,26.83
2018-07-16T10:29:31.702Z,26.97
2018-07-16T10:34:18.990Z,26.89
2018-07-16T10:39:02.494Z,26.82
2018-07-16T10:43:47.098Z,26.92
2018-07-16T10:48:30.420Z,26.85
2018-07-16T10:53:14.122Z,27.23
2018-07-16T10:57:57.752Z,27.19
2018-07-16T11:02:41.456Z,27.09
2018-07-16T11:07:24.827Z,27.24
2018-07-16T11:12:09.498Z,27.50
2018-07-16T11:16:53.021Z,27.38
2018-07-16T11:21:38.680Z,27.38
2018-07-16T11:26:22.302Z,27.51
2018-07-16T11:31:09.261Z,27.40
2018-07-16T11:35:52.838Z,27.39
2018-07-16T11:40:36.286Z,27.86
2018-07-16T11:45:23.421Z,28.10
2018-07-16T11:50:06.784Z,28.15
2018-07-16T11:54:53.841Z,27.65
2018-07-16T11:59:37.239Z,27.40
2018-07-16T12:04:24.678Z,27.84
2018-07-16T12:09:08.175Z,28.03
2018-07-16T12:13:52.484Z,28.72
2018-07-16T12:18:36.648Z,28.25
2018-07-16T12:23:21.099Z,28.54
2018-07-16T12:28:04.722Z,28.20
2018-07-16T12:32:48.403Z,28.87
2018-07-16T12:37:31.906Z,28.75
2018-07-16T12:42:16.455Z,28.52
2018-07-16T12:47:00.032Z,28.55
2018-07-16T12:51:46.876Z,28.37
2018-07-16T12:56:30.396Z,28.88
2018-07-16T13:01:17.149Z,29.22
2018-07-16T13:06:00.600Z,29.01
2018-07-16T13:10:47.864Z,29.22
2018-07-16T13:15:31.298Z,29.01
2018-07-16T13:20:14.823Z,29.52
2018-07-16T13:25:02.122Z,29.67
2018-07-16T13:29:45.617Z,29.26
2018-07-16T13:34:32.150Z,29.66
2018-07-16T13:39:15.677Z,29.67
2018-07-16T13:43:59.334Z,29.64
2018-07-16T13:48:42.931Z,29.96
2018-07-16T13:53:27.381Z,29.62
2018-07-16T13:58:10.944Z,29.82
2018-07-16T14:02:54.411Z,29.83
2018-07-16T14:07:37.862Z,29.46
2018-07-16T14:12:21.612Z,29.08
2018-07-16T14:17:05.075Z,29.08
2018-07-16T14:21:54.258Z,28.90
2018-07-16T14:26:37.849Z,29.22
2018-07-16T14:31:22.543Z,29.05
2018-07-16T14:36:06.052Z,29.15
2018-07-16T14:40:50.876Z,29.42
2018-07-16T14:45:34.308Z,29.33
2018-07-16T14:50:17.897Z,29.35
2018-07-16T14:55:01.570Z,29.27
2018-07-16T14:59:45.074Z,29.26
2018-07-16T15:04:29.646Z,29.28
2018-07-16T15:09:13.278Z,29.19
2018-07-16T15:13:59.833Z,29.18
2018-07-16T15:18:43.336Z,29.27
2018-07-16T15:23:28.063Z,29.16
2018-07-16T15:28:11.669Z,29.14
2018-07-16T15:32:55.418Z,29.25
2018-07-16T15:37:38.780Z,29.20
2018-07-16T15:42:22.508Z,29.31
2018-07-16T15:47:05.996Z,29.27
2018-07-16T15:51:53.537Z,29.24
2018-07-16T15:56:37.161Z,29.23
2018-07-16T16:01:21.950Z,29.22
2018-07-16T16:06:05.739Z,29.23
2018-07-16T16:10:49.170Z,29.13
2018-07-16T16:15:36.142Z,29.09
2018-07-16T16:20:19.751Z,29.09
2018-07-16T16:25:06.864Z,29.04
2018-07-16T16:29:50.238Z,29.00
2018-07-16T16:34:36.892Z,29.01
2018-07-16T16:39:20.359Z,28.97
2018-07-16T16:44:07.208Z,28.81
2018-07-16T16:48:51.625Z,28.75
2018-07-16T16:53:35.329Z,28.71
2018-07-16T16:58:18.814Z,28.73
2018-07-16T17:03:02.463Z,28.68
2018-07-16T17:07:47.136Z,28.58
2018-07-16T17:12:30.815Z,28.57
2018-07-16T17:17:18.237Z,28.54
2018-07-16T17:22:01.707Z,28.51
2018-07-16T17:26:52.716Z,28.37
2018-07-16T17:31:36.887Z,28.28
2018-07-16T17:36:25.878Z,28.21
2018-07-16T17:41:09.437Z,28.26
2018-07-16T17:45:56.871Z,28.10
2018-07-16T17:50:40.327Z,28.04
2018-07-16T17:55:27.887Z,27.98
2018-07-16T18:00:11.479Z,28.15
2018-07-16T18:04:54.934Z,28.33
2018-07-16T18:09:38.480Z,28.36
2018-07-16T18:14:25.298Z,28.31
2018-07-16T18:19:08.862Z,28.22
2018-07-16T18:23:53.286Z,28.23
2018-07-16T18:28:36.856Z,28.28
2018-07-16T18:33:20.459Z,28.16
2018-07-16T18:38:03.957Z,28.18
2018-07-16T18:42:47.468Z,28.14
2018-07-16T18:47:31.127Z,28.18
2018-07-16T18:52:14.701Z,27.64
2018-07-16T18:56:59.163Z,27.53
2018-07-16T19:01:42.831Z,27.60
2018-07-16T19:06:26.724Z,27.33
2018-07-16T19:11:10.115Z,27.23
2018-07-16T19:15:54.006Z,27.27
2018-07-16T19:20:37.585Z,27.44
2018-07-16T19:25:22.090Z,27.65
2018-07-16T19:30:06.264Z,27.22
2018-07-16T19:34:51.163Z,27.24
2018-07-16T19:39:35.524Z,27.54
2018-07-16T19:44:19.340Z,27.70
2018-07-16T19:49:02.921Z,27.75
2018-07-16T19:53:46.590Z,27.43
2018-07-16T19:58:30.207Z,27.67
2018-07-16T20:03:14.025Z,27.75
2018-07-16T20:07:57.474Z,27.57
2018-07-16T20:12:41.022Z,27.46
2018-07-16T20:17:27.854Z,27.51
2018-07-16T20:22:11.371Z,27.52
2018-07-16T20:26:58.364Z,27.00
2018-07-16T20:31:41.925Z,27.23
2018-07-16T20:36:26.733Z,27.39
2018-07-16T20:41:10.378Z,26.59
2018-07-16T20:45:56.939Z,26.76
2018-07-16T20:50:40.643Z,27.11
2018-07-16T20:55:24.303Z,27.11
2018-07-16T21:00:09.023Z,26.89
2018-07-16T21:04:53.581Z,27.01
2018-07-16T21:09:37.130Z,26.94
2018-07-16T21:14:21.711Z,26.66
2018-07-16T21:19:05.270Z,26.88
2018-07-16T21:23:49.884Z,26.59
2018-07-16T21:28:33.424Z,26.49
2018-07-16T21:33:20.063Z,26.19
2018-07-16T21:38:03.613Z,26.02
2018-07-16T21:42:47.158Z,26.32
2018-07-16T21:47:30.738Z,26.23
2018-07-16T21:52:14.502Z,26.44
2018-07-16T21:57:01.255Z,26.32
2018-07-16T22:01:44.769Z,25.82
2018-07-16T22:06:32.222Z,25.32
2018-07-16T22:11:15.786Z,25.49
2018-07-16T22:16:02.909Z,25.94
2018-07-16T22:20:46.397Z,25.72
2018-07-16T22:25:30.018Z,25.97
2018-07-16T22:30:13.591Z,25.86
2018-07-16T22:35:03.744Z,26.11
2018-07-16T22:39:47.253Z,26.14
2018-07-16T22:44:30.851Z,25.56
2018-07-16T22:49:14.460Z,25.33
2018-07-16T22:53:59.198Z,25.89
2018-07-16T22:58:42.771Z,25.83
2018-07-16T23:03:26.378Z,25.93
2018-07-16T23:08:09.898Z,26.05
2018-07-16T23:12:54.468Z,25.97
2018-07-16T23:17:37.908Z,25.91
2018-07-16T23:22:21.531Z,25.64
2018-07-16T23:27:08.336Z,25.28
2018-07-16T23:31:51.964Z,25.10
2018-07-16T23:36:36.560Z,25.43
2018-07-16T23:41:19.901Z,25.07
2018-07-16T23:46:07.234Z,25.53
2018-07-16T23:50:50.748Z,25.63
2018-07-16T23:55:37.434Z,25.61
